Time;durP1;ratioP1;P1;durP2;ratioP2;P2;SDS_P1;SDS_P2;PMS_P1;PMS_P2;Temp;Humidity;BMP_temperature;BMP_pressure;BME280_temperature;BME280_humidity;BME280_pressure;Samples;Min_cycle;Max_cycle;Signal;HPM_P1;HPM_P2
2023/06/20 00:01:12;;;;;;;4.13;3.70;;;23.90;99.90;;;;;;5017825;28;20052;-72
2023/06/20 00:03:38;;;;;;;5.63;3.95;;;23.90;99.90;;;;;;5017192;28;20022;-72
2023/06/20 00:06:03;;;;;;;3.80;3.40;;;23.80;99.90;;;;;;5016992;28;20018;-72
2023/06/20 00:08:29;;;;;;;8.95;3.67;;;23.80;99.90;;;;;;5017632;28;20014;-72
2023/06/20 00:10:54;;;;;;;5.30;3.40;;;23.70;99.90;;;;;;5017074;28;20030;-72
2023/06/20 00:13:20;;;;;;;4.38;3.47;;;23.80;99.90;;;;;;5017038;28;20093;-72
2023/06/20 00:15:45;;;;;;;5.28;4.18;;;23.70;99.90;;;;;;5016641;28;20037;-72
2023/06/20 00:18:11;;;;;;;5.30;4.10;;;23.60;99.90;;;;;;5016569;28;20042;-72
2023/06/20 00:20:36;;;;;;;6.45;3.88;;;23.60;99.90;;;;;;5016771;28;20061;-72
2023/06/20 00:23:03;;;;;;;4.75;4.20;;;23.60;99.90;;;;;;5001290;28;20077;-72
2023/06/20 00:25:29;;;;;;;6.63;3.85;;;23.60;99.90;;;;;;5016380;28;20057;-72
2023/06/20 00:27:54;;;;;;;5.43;3.60;;;23.70;99.90;;;;;;5017070;28;20025;-72
2023/06/20 00:30:20;;;;;;;7.93;4.25;;;23.60;99.90;;;;;;5016641;28;20026;-72
2023/06/20 00:32:46;;;;;;;6.68;3.80;;;23.60;99.90;;;;;;5017304;28;20109;-72
2023/06/20 00:35:11;;;;;;;9.40;4.43;;;23.60;99.90;;;;;;5016615;28;20041;-72
2023/06/20 00:37:38;;;;;;;6.78;4.07;;;23.50;99.90;;;;;;5016694;28;20053;-72
2023/06/20 00:40:09;;;;;;;8.27;3.72;;;23.50;99.90;;;;;;5017120;28;20075;-72
2023/06/20 00:42:35;;;;;;;11.25;4.28;;;23.50;99.90;;;;;;5016546;28;20060;-72
2023/06/20 00:45:00;;;;;;;4.03;3.63;;;23.40;99.90;;;;;;5017027;28;20034;-72
2023/06/20 00:47:27;;;;;;;4.90;3.67;;;23.40;99.90;;;;;;5016355;28;20025;-72
2023/06/20 00:49:53;;;;;;;6.10;3.85;;;23.30;99.90;;;;;;5016778;28;20022;-72
2023/06/20 00:52:21;;;;;;;6.25;3.88;;;23.40;99.90;;;;;;5016579;28;20022;-72
2023/06/20 00:54:48;;;;;;;4.97;3.58;;;23.20;99.90;;;;;;5016505;28;20026;-72
2023/06/20 00:57:15;;;;;;;4.45;3.55;;;23.30;99.90;;;;;;5016509;28;20026;-72
2023/06/20 00:59:48;;;;;;;6.05;3.42;;;23.40;99.90;;;;;;5016422;28;20036;-72
2023/06/20 01:02:14;;;;;;;6.95;4.05;;;23.50;99.90;;;;;;5016277;28;20053;-72
2023/06/20 01:04:45;;;;;;;9.18;4.45;;;23.50;99.90;;;;;;5016846;28;20030;-72
2023/06/20 01:07:48;;;;;;;6.57;3.20;;;23.40;99.90;;;;;;5020788;28;20022;-72
2023/06/20 01:10:29;;;;;;;7.15;4.00;;;23.30;99.90;;;;;;4980451;28;20029;-72
2023/06/20 01:12:59;;;;;;;6.88;4.10;;;23.50;99.90;;;;;;4964572;28;20035;-72
2023/06/20 01:15:53;;;;;;;6.43;3.78;;;23.70;99.90;;;;;;4964255;28;20031;-72
2023/06/20 01:18:48;;;;;;;8.43;4.38;;;23.70;99.90;;;;;;4951704;28;20031;-72
2023/06/20 01:21:19;;;;;;;7.35;3.83;;;23.70;99.90;;;;;;4964304;28;20027;-72
2023/06/20 01:23:54;;;;;;;6.55;4.25;;;23.60;99.90;;;;;;4964195;28;20092;-72
2023/06/20 01:26:35;;;;;;;4.43;3.67;;;23.70;99.90;;;;;;4964024;28;20049;-72
2023/06/20 01:29:36;;;;;;;7.38;4.20;;;23.80;99.90;;;;;;4964408;28;20023;-72
2023/06/20 01:32:06;;;;;;;8.10;3.78;;;23.80;99.90;;;;;;4960409;28;20042;-72
2023/06/20 01:34:37;;;;;;;12.10;4.00;;;23.70;99.90;;;;;;4995781;22;20045;-71
2023/06/20 01:37:06;;;;;;;6.15;3.80;;;23.60;99.90;;;;;;5019595;28;20173;-71
2023/06/20 01:39:37;;;;;;;6.10;4.03;;;23.60;99.90;;;;;;5020432;28;20057;-72
2023/06/20 01:42:04;;;;;;;4.57;3.80;;;23.50;99.90;;;;;;5019559;28;20033;-74
2023/06/20 01:44:32;;;;;;;4.60;3.97;;;23.50;99.90;;;;;;5019506;28;20037;-74
2023/06/20 01:47:00;;;;;;;6.03;4.25;;;23.40;99.90;;;;;;5019352;28;20030;-74
2023/06/20 01:49:27;;;;;;;8.85;4.43;;;23.40;99.90;;;;;;5020094;28;20057;-74
2023/06/20 01:51:56;;;;;;;5.00;4.13;;;23.20;99.90;;;;;;5019520;28;20096;-74
2023/06/20 01:54:27;;;;;;;6.90;4.28;;;23.10;99.90;;;;;;5019313;28;20076;-74
2023/06/20 01:56:54;;;;;;;5.80;4.25;;;22.80;99.90;;;;;;5020300;28;20026;-74
2023/06/20 01:59:20;;;;;;;8.32;5.07;;;22.90;99.90;;;;;;5020086;28;20076;-74
2023/06/20 02:01:48;;;;;;;7.38;4.53;;;22.80;99.90;;;;;;5019331;28;20037;-74
2023/06/20 02:04:16;;;;;;;7.72;4.90;;;22.80;99.90;;;;;;5019371;28;20029;-75
2023/06/20 02:06:44;;;;;;;6.40;4.25;;;22.80;99.90;;;;;;5020075;28;20029;-74
2023/06/20 02:09:11;;;;;;;9.25;4.68;;;22.80;99.90;;;;;;5020014;28;20029;-74
2023/06/20 02:11:36;;;;;;;5.90;4.80;;;22.80;99.90;;;;;;5019899;28;20026;-74
2023/06/20 02:14:03;;;;;;;8.65;4.95;;;22.80;99.90;;;;;;5019840;28;20033;-74
2023/06/20 02:16:30;;;;;;;9.38;4.95;;;22.80;99.90;;;;;;5017913;28;20030;-75
2023/06/20 02:18:56;;;;;;;10.57;4.80;;;22.80;99.90;;;;;;5019620;28;20033;-74
2023/06/20 02:21:27;;;;;;;7.43;4.93;;;22.80;99.90;;;;;;5018836;28;20026;-74
2023/06/20 02:23:54;;;;;;;6.75;4.32;;;22.90;99.90;;;;;;5018849;28;20072;-74
2023/06/20 02:26:25;;;;;;;8.43;5.50;;;23.10;99.90;;;;;;5018898;28;20022;-74
2023/06/20 02:28:54;;;;;;;;;;;23.00;99.90;;;;;;5020216;28;20022;-74
2023/06/20 02:31:24;;;;;;;6.85;4.97;;;22.60;99.90;;;;;;5019046;28;19905;-74
2023/06/20 02:33:53;;;;;;;5.95;4.70;;;22.50;99.90;;;;;;5018979;28;20026;-75
2023/06/20 02:36:25;;;;;;;7.30;5.28;;;22.40;99.90;;;;;;5018560;28;20038;-74
2023/06/20 02:38:52;;;;;;;5.78;4.55;;;22.20;99.90;;;;;;5019375;28;20025;-74
2023/06/20 02:41:19;;;;;;;5.38;4.55;;;22.30;99.90;;;;;;5018721;28;20034;-74
2023/06/20 02:43:45;;;;;;;8.68;4.57;;;22.30;99.90;;;;;;5019450;28;20029;-74
2023/06/20 02:46:49;;;;;;;6.18;4.68;;;22.40;99.90;;;;;;5018466;28;20018;-74
2023/06/20 02:49:23;;;;;;;6.25;4.88;;;22.50;99.90;;;;;;5001071;28;20034;-74
2023/06/20 02:51:54;;;;;;;7.20;4.93;;;22.40;99.90;;;;;;5019679;28;20028;-74
2023/06/20 02:54:42;;;;;;;8.00;4.80;;;22.20;99.90;;;;;;5019494;28;20033;-74
2023/06/20 02:57:11;;;;;;;9.85;5.30;;;22.40;99.90;;;;;;5017926;28;20030;-74
2023/06/20 02:59:38;;;;;;;8.50;5.00;;;22.50;99.90;;;;;;5018397;28;20030;-74
2023/06/20 03:02:07;;;;;;;6.68;5.40;;;22.60;99.90;;;;;;5019431;28;20109;-74
2023/06/20 03:04:33;;;;;;;8.75;5.05;;;22.40;99.90;;;;;;5019083;28;20022;-73
2023/06/20 03:07:01;;;;;;;7.88;5.38;;;22.40;99.90;;;;;;5019529;28;20022;-74
2023/06/20 03:09:29;;;;;;;6.35;4.47;;;22.40;99.90;;;;;;5019327;28;20026;-74
2023/06/20 03:11:55;;;;;;;11.77;4.65;;;22.40;99.90;;;;;;5019317;28;20036;-74
2023/06/20 03:14:21;;;;;;;6.35;4.93;;;22.30;99.90;;;;;;5018859;28;20025;-74
2023/06/20 03:16:46;;;;;;;8.43;5.75;;;22.30;99.90;;;;;;5019874;28;20108;-74
2023/06/20 03:19:12;;;;;;;7.47;5.30;;;22.00;99.90;;;;;;5019808;28;20022;-74
2023/06/20 03:21:39;;;;;;;7.60;5.57;;;21.80;99.90;;;;;;5020282;28;20030;-74
2023/06/20 03:24:05;;;;;;;7.75;5.15;;;21.70;99.90;;;;;;5019586;28;20054;-74
2023/06/20 03:26:31;;;;;;;14.88;5.22;;;21.70;99.90;;;;;;5017626;28;20025;-74
2023/06/20 03:28:57;;;;;;;6.35;5.13;;;21.60;99.90;;;;;;5017350;28;20044;-74
2023/06/20 03:31:22;;;;;;;9.52;5.25;;;21.60;99.90;;;;;;5018622;28;20021;-74
2023/06/20 03:33:48;;;;;;;6.93;5.25;;;21.70;99.90;;;;;;5017464;28;20034;-74
2023/06/20 03:36:14;;;;;;;7.28;5.70;;;21.70;99.90;;;;;;5017824;28;20029;-74
2023/06/20 03:38:39;;;;;;;7.68;5.55;;;21.50;99.90;;;;;;5017391;28;20022;-74
2023/06/20 03:41:05;;;;;;;8.20;6.13;;;21.80;99.90;;;;;;5017369;28;20026;-74
2023/06/20 03:43:31;;;;;;;9.57;6.07;;;21.80;99.90;;;;;;5017260;28;20041;-74
2023/06/20 03:45:56;;;;;;;8.82;6.00;;;21.90;99.90;;;;;;5017992;28;20022;-74
2023/06/20 03:48:22;;;;;;;6.53;5.60;;;22.00;99.90;;;;;;5017100;28;20046;-74
2023/06/20 03:50:47;;;;;;;8.35;5.50;;;22.10;99.90;;;;;;5017154;28;20113;-74
2023/06/20 03:53:13;;;;;;;6.60;5.57;;;22.00;99.90;;;;;;5017396;28;20026;-74
2023/06/20 03:55:38;;;;;;;7.93;5.22;;;22.20;99.90;;;;;;5016968;28;20045;-75
2023/06/20 03:58:04;;;;;;;9.55;5.78;;;22.20;99.90;;;;;;5017301;28;20029;-74
2023/06/20 04:00:29;;;;;;;8.88;5.10;;;22.10;99.90;;;;;;5016811;28;20072;-74
2023/06/20 04:02:55;;;;;;;10.52;5.95;;;22.20;99.90;;;;;;5016945;28;20037;-75
2023/06/20 04:05:22;;;;;;;9.52;6.43;;;22.10;99.90;;;;;;5017774;28;20069;-74
2023/06/20 04:07:47;;;;;;;7.75;6.18;;;22.10;99.90;;;;;;5016966;28;20045;-74
2023/06/20 04:10:13;;;;;;;7.78;5.13;;;22.10;99.90;;;;;;5016914;28;20022;-74
2023/06/20 04:12:40;;;;;;;7.05;5.65;;;22.10;99.90;;;;;;5017003;28;20026;-74
2023/06/20 04:15:06;;;;;;;9.82;6.30;;;22.00;99.90;;;;;;5017064;28;20053;-74
2023/06/20 04:17:32;;;;;;;8.40;5.78;;;21.80;99.90;;;;;;5016733;28;20076;-74
2023/06/20 04:19:59;;;;;;;9.43;6.13;;;21.80;99.90;;;;;;5017574;28;20041;-74
2023/06/20 04:22:28;;;;;;;8.52;6.47;;;21.80;99.90;;;;;;5016878;28;20022;-74
2023/06/20 04:24:54;;;;;;;8.27;6.60;;;21.80;99.90;;;;;;5016567;28;20053;-74
2023/06/20 04:27:19;;;;;;;9.57;5.80;;;21.70;99.90;;;;;;5017569;28;20029;-74
2023/06/20 04:29:45;;;;;;;8.27;6.00;;;21.70;99.90;;;;;;5017651;28;20022;-74
2023/06/20 04:32:10;;;;;;;8.57;5.80;;;21.70;99.90;;;;;;5016456;28;20030;-74
2023/06/20 04:34:36;;;;;;;8.80;6.03;;;21.60;99.90;;;;;;5017295;28;20033;-74
2023/06/20 04:37:01;;;;;;;8.43;5.57;;;21.50;99.90;;;;;;5016446;28;20037;-74
2023/06/20 04:39:29;;;;;;;11.43;5.88;;;21.50;99.90;;;;;;5015749;28;20033;-75
2023/06/20 04:41:55;;;;;;;12.32;5.93;;;21.50;99.90;;;;;;5016531;28;20029;-74
2023/06/20 04:44:20;;;;;;;7.15;6.00;;;21.50;99.90;;;;;;5017087;28;20021;-74
2023/06/20 04:46:46;;;;;;;10.73;6.15;;;21.50;99.90;;;;;;5016777;28;20065;-74
2023/06/20 04:49:11;;;;;;;8.45;6.28;;;21.60;99.90;;;;;;5016746;28;20018;-74
2023/06/20 04:51:40;;;;;;;10.45;5.97;;;21.60;99.90;;;;;;5017131;28;20033;-74
2023/06/20 04:54:07;;;;;;;7.90;5.72;;;21.60;99.90;;;;;;5016235;28;20026;-74
2023/06/20 04:56:40;;;;;;;9.85;6.53;;;21.60;99.90;;;;;;5016657;28;20036;-74
2023/06/20 04:59:08;;;;;;;14.10;6.47;;;21.60;99.90;;;;;;5016954;28;20030;-74
2023/06/20 05:01:34;;;;;;;8.10;6.30;;;21.60;99.90;;;;;;5016546;28;20022;-74
2023/06/20 05:04:03;;;;;;;11.27;6.85;;;21.50;99.90;;;;;;5017049;28;20053;-74
2023/06/20 05:06:29;;;;;;;7.85;6.00;;;21.30;99.90;;;;;;5016361;28;20037;-74
2023/06/20 05:08:54;;;;;;;11.32;6.68;;;21.40;99.90;;;;;;5016471;28;20018;-74
2023/06/20 05:11:20;;;;;;;12.27;6.43;;;21.40;99.90;;;;;;5015929;28;20033;-74
2023/06/20 05:13:45;;;;;;;13.05;6.65;;;21.40;99.90;;;;;;5016129;28;20109;-74
2023/06/20 05:16:11;;;;;;;9.85;6.70;;;21.30;99.90;;;;;;5016297;28;20026;-74
2023/06/20 05:18:36;;;;;;;9.05;7.18;;;21.40;99.90;;;;;;5016527;28;20108;-74
2023/06/20 05:21:02;;;;;;;10.45;6.72;;;21.50;99.90;;;;;;5015990;28;20119;-74
2023/06/20 05:23:27;;;;;;;10.77;6.63;;;21.60;99.90;;;;;;5016246;28;20026;-74
2023/06/20 05:25:54;;;;;;;8.85;6.75;;;21.60;99.90;;;;;;5016491;28;20029;-74
2023/06/20 05:28:19;;;;;;;13.00;6.97;;;21.60;99.90;;;;;;5016152;28;20028;-74
2023/06/20 05:30:45;;;;;;;9.30;6.18;;;21.60;99.90;;;;;;5016324;28;20022;-74
2023/06/20 05:33:10;;;;;;;10.23;6.38;;;21.70;99.90;;;;;;5016748;28;20018;-74
2023/06/20 05:35:36;;;;;;;11.32;7.45;;;21.60;99.90;;;;;;5015976;28;20032;-74
2023/06/20 05:38:03;;;;;;;7.95;6.43;;;21.60;99.90;;;;;;5016008;28;20050;-74
2023/06/20 05:40:29;;;;;;;8.90;6.57;;;21.70;99.90;;;;;;5015883;28;20030;-74
2023/06/20 05:42:54;;;;;;;13.20;7.70;;;21.80;99.90;;;;;;5016601;28;20026;-74
2023/06/20 05:45:21;;;;;;;8.50;6.55;;;21.80;99.90;;;;;;5015849;28;20014;-74
2023/06/20 05:47:46;;;;;;;10.30;6.50;;;21.90;99.90;;;;;;5015998;28;20153;-74
2023/06/20 05:50:12;;;;;;;9.68;7.40;;;21.90;99.90;;;;;;5016011;28;20091;-74
2023/06/20 05:52:37;;;;;;;12.00;7.85;;;22.00;99.90;;;;;;5019033;28;20025;-75
2023/06/20 05:55:04;;;;;;;10.10;7.60;;;22.00;99.90;;;;;;5019633;28;20033;-74
2023/06/20 05:57:29;;;;;;;14.48;9.45;;;22.10;99.90;;;;;;5019144;28;20026;-75
2023/06/20 05:59:55;;;;;;;10.75;8.32;;;22.10;99.90;;;;;;5019456;28;20018;-74
2023/06/20 06:02:21;;;;;;;17.33;9.85;;;22.00;99.90;;;;;;5019254;28;20033;-74
2023/06/20 06:04:48;;;;;;;17.48;10.70;;;21.90;99.90;;;;;;5019017;28;20022;-75
2023/06/20 06:07:14;;;;;;;16.17;11.38;;;22.10;99.90;;;;;;5019021;28;20117;-74
2023/06/20 06:09:39;;;;;;;18.98;12.15;;;22.20;99.90;;;;;;5018970;28;20057;-74
2023/06/20 06:12:05;;;;;;;16.67;11.73;;;22.20;99.90;;;;;;5019385;28;20022;-74
2023/06/20 06:14:31;;;;;;;16.60;11.63;;;22.30;99.90;;;;;;5018772;28;20026;-75
2023/06/20 06:16:57;;;;;;;18.45;10.23;;;22.30;99.90;;;;;;5019955;28;20072;-74
2023/06/20 06:19:22;;;;;;;13.70;9.73;;;22.30;99.90;;;;;;5018773;28;20025;-74
2023/06/20 06:21:48;;;;;;;14.25;8.05;;;22.40;99.90;;;;;;5019308;28;20172;-74
2023/06/20 06:24:14;;;;;;;8.95;6.63;;;22.40;99.90;;;;;;5018713;28;20045;-74
2023/06/20 06:26:39;;;;;;;15.10;7.82;;;22.60;99.90;;;;;;5019381;28;20025;-75
2023/06/20 06:29:05;;;;;;;10.05;6.68;;;22.70;99.90;;;;;;5019812;28;20044;-74
2023/06/20 06:31:33;;;;;;;8.10;6.60;;;22.70;99.90;;;;;;5018957;28;20030;-74
2023/06/20 06:34:01;;;;;;;8.68;6.72;;;22.80;99.90;;;;;;5018855;28;20030;-75
2023/06/20 06:36:28;;;;;;;9.65;6.80;;;22.80;99.90;;;;;;5018297;28;20041;-75
2023/06/20 06:38:54;;;;;;;8.80;6.75;;;22.80;99.90;;;;;;5018462;28;20022;-75
2023/06/20 06:41:21;;;;;;;9.93;8.20;;;22.70;99.90;;;;;;5018904;28;20028;-75
2023/06/20 06:43:47;;;;;;;12.15;7.75;;;22.60;99.90;;;;;;5018504;28;20026;-75
2023/06/20 06:46:12;;;;;;;14.18;8.40;;;22.60;99.90;;;;;;5018853;28;20177;-75
2023/06/20 06:48:38;;;;;;;12.35;7.82;;;22.70;99.90;;;;;;5019298;28;20022;-76
2023/06/20 06:51:04;;;;;;;11.05;8.18;;;22.60;99.90;;;;;;5019695;28;20022;-76
2023/06/20 06:53:29;;;;;;;10.85;8.32;;;22.60;99.90;;;;;;5018880;28;20097;-75
2023/06/20 06:55:55;;;;;;;11.13;7.97;;;22.60;99.90;;;;;;5019444;28;20112;-75
2023/06/20 06:58:21;;;;;;;12.38;7.30;;;22.90;99.90;;;;;;5019462;28;20022;-75
2023/06/20 07:00:46;;;;;;;9.27;7.65;;;23.00;99.90;;;;;;5018829;28;20034;-75
2023/06/20 07:03:12;;;;;;;10.48;7.78;;;23.10;99.90;;;;;;5018495;28;20030;-76
2023/06/20 07:05:38;;;;;;;16.60;9.20;;;23.00;99.90;;;;;;5018662;28;20018;-76
2023/06/20 07:08:04;;;;;;;11.93;8.52;;;22.90;99.90;;;;;;5018803;28;20025;-76
2023/06/20 07:10:29;;;;;;;11.60;8.68;;;22.70;99.90;;;;;;5019174;28;20104;-75
2023/06/20 07:12:55;;;;;;;10.65;8.55;;;22.90;99.90;;;;;;5018826;28;20022;-75
2023/06/20 07:15:20;;;;;;;11.85;8.23;;;22.90;99.90;;;;;;5019116;28;20030;-76
2023/06/20 07:17:46;;;;;;;12.68;8.43;;;23.10;99.90;;;;;;5019365;28;20065;-76
2023/06/20 07:20:12;;;;;;;9.00;7.10;;;23.30;99.90;;;;;;5019942;28;20030;-76
2023/06/20 07:22:37;;;;;;;10.80;7.78;;;23.60;99.90;;;;;;5020645;28;20030;-76
2023/06/20 07:25:03;;;;;;;10.45;7.85;;;23.70;99.90;;;;;;5020815;28;20018;-75
2023/06/20 07:27:29;;;;;;;11.80;7.88;;;23.70;99.90;;;;;;5020021;28;20025;-76
2023/06/20 07:29:55;;;;;;;10.38;7.13;;;23.50;99.90;;;;;;5022756;28;20029;-76
2023/06/20 07:32:21;;;;;;;8.63;7.53;;;23.60;99.90;;;;;;5024696;28;20049;-76
2023/06/20 07:34:48;;;;;;;11.43;6.95;;;23.70;99.90;;;;;;5045715;22;20020;-68
2023/06/20 07:37:14;;;;;;;13.13;7.70;;;23.60;99.90;;;;;;5018412;28;20022;-69
2023/06/20 07:39:41;;;;;;;9.48;7.55;;;23.60;99.90;;;;;;5017386;28;20025;-69
2023/06/20 07:42:07;;;;;;;11.43;7.43;;;23.50;99.90;;;;;;5017233;28;20030;-69
2023/06/20 07:44:32;;;;;;;8.55;6.43;;;23.50;99.90;;;;;;5017879;28;20022;-69
2023/06/20 07:46:58;;;;;;;11.45;8.20;;;23.50;99.90;;;;;;5018104;28;20018;-69
2023/06/20 07:49:23;;;;;;;8.32;6.90;;;23.50;99.90;;;;;;5018390;28;20030;-71
2023/06/20 07:51:49;;;;;;;11.85;8.32;;;23.50;99.90;;;;;;5017177;28;20117;-71
2023/06/20 07:54:15;;;;;;;8.85;7.35;;;23.40;99.90;;;;;;5017849;28;20032;-71
2023/06/20 07:56:41;;;;;;;8.63;7.57;;;23.30;99.90;;;;;;5017251;28;20116;-71
2023/06/20 07:59:06;;;;;;;9.57;7.53;;;23.30;99.90;;;;;;5017414;28;20033;-71
2023/06/20 08:01:32;;;;;;;12.45;7.45;;;23.40;99.90;;;;;;5016888;28;20032;-72
2023/06/20 08:03:57;;;;;;;9.48;7.03;;;23.50;99.90;;;;;;5018079;28;20022;-72
2023/06/20 08:06:23;;;;;;;8.23;7.03;;;23.60;99.90;;;;;;5016894;28;20021;-72
2023/06/20 08:08:48;;;;;;;9.88;7.38;;;24.00;99.90;;;;;;5017871;28;20057;-72
2023/06/20 08:11:19;;;;;;;10.13;7.30;;;24.20;99.90;;;;;;5017244;28;20026;-72
2023/06/20 08:13:44;;;;;;;10.07;6.40;;;24.10;99.90;;;;;;5016675;28;20025;-72
2023/06/20 08:16:10;;;;;;;10.50;6.50;;;24.20;99.90;;;;;;5016245;28;20036;-72
2023/06/20 08:18:35;;;;;;;12.05;8.73;;;24.40;99.90;;;;;;5017475;28;20022;-72
2023/06/20 08:21:01;;;;;;;9.52;8.23;;;24.30;99.90;;;;;;5017501;28;20076;-72
2023/06/20 08:23:27;;;;;;;10.35;8.50;;;24.00;99.90;;;;;;5017480;28;20110;-72
2023/06/20 08:25:54;;;;;;;10.60;8.05;;;23.70;99.90;;;;;;5016761;28;20033;-72
2023/06/20 08:28:21;;;;;;;11.18;7.97;;;23.80;99.90;;;;;;5017383;28;20057;-72
2023/06/20 08:30:46;;;;;;;12.75;9.02;;;24.00;99.90;;;;;;5016606;28;20022;-72
2023/06/20 08:33:12;;;;;;;8.43;7.47;;;24.00;99.90;;;;;;5017366;28;20025;-72
2023/06/20 08:35:38;;;;;;;12.88;7.90;;;24.10;99.90;;;;;;5017226;28;20033;-72
2023/06/20 08:38:03;;;;;;;13.10;8.20;;;24.40;99.90;;;;;;5016508;28;20037;-72
2023/06/20 08:40:30;;;;;;;9.95;7.30;;;24.30;99.90;;;;;;5016615;28;20022;-72
2023/06/20 08:42:56;;;;;;;9.55;7.60;;;24.40;99.90;;;;;;5016964;28;20026;-72
2023/06/20 08:45:22;;;;;;;11.32;7.93;;;24.40;99.90;;;;;;5017237;28;20021;-72
2023/06/20 08:47:47;;;;;;;8.98;7.22;;;24.50;99.90;;;;;;5016344;28;20022;-72
2023/06/20 08:50:13;;;;;;;11.70;7.78;;;24.60;99.90;;;;;;5017328;28;20085;-72
2023/06/20 08:52:47;;;;;;;10.98;7.13;;;24.70;99.90;;;;;;5016264;28;20031;-72
2023/06/20 08:55:16;;;;;;;12.70;6.88;;;24.90;99.90;;;;;;5017021;28;20049;-72
2023/06/20 08:57:45;;;;;;;8.85;7.20;;;25.20;99.90;;;;;;5016344;28;20080;-72
2023/06/20 09:00:16;;;;;;;13.77;7.68;;;25.60;99.90;;;;;;5016307;28;20041;-72
2023/06/20 09:02:41;;;;;;;8.70;7.30;;;25.50;99.90;;;;;;5016558;28;20029;-72
2023/06/20 09:05:07;;;;;;;10.63;8.32;;;25.30;99.90;;;;;;5016280;28;20026;-71
2023/06/20 09:07:37;;;;;;;13.52;7.35;;;25.30;99.90;;;;;;5017043;28;20014;-71
2023/06/20 09:10:08;;;;;;;14.63;7.67;;;25.30;99.90;;;;;;5016739;28;20026;-72
2023/06/20 09:12:47;;;;;;;18.45;8.52;;;25.30;99.90;;;;;;5016904;28;20137;-72
2023/06/20 09:15:18;;;;;;;9.40;7.45;;;25.20;99.90;;;;;;5016268;28;20172;-72
2023/06/20 09:17:45;;;;;;;8.82;7.38;;;25.30;99.90;;;;;;5016069;28;20022;-72
2023/06/20 09:20:12;;;;;;;11.52;8.00;;;25.50;99.90;;;;;;5015988;28;20033;-72
2023/06/20 09:22:39;;;;;;;8.98;6.85;;;25.80;99.90;;;;;;5016709;28;20033;-72
2023/06/20 09:25:06;;;;;;;10.65;7.93;;;26.10;99.90;;;;;;5015905;28;20026;-72
2023/06/20 09:27:41;;;;;;;12.65;7.78;;;26.30;99.90;;;;;;5019163;28;20017;-72
2023/06/20 09:30:08;;;;;;;12.00;7.25;;;26.50;99.90;;;;;;5020742;28;20080;-72
2023/06/20 09:32:40;;;;;;;10.70;8.13;;;26.40;99.90;;;;;;5020609;28;20080;-72
2023/06/20 09:35:10;;;;;;;13.18;7.85;;;26.20;99.90;;;;;;5019803;28;20038;-72
2023/06/20 09:37:51;;;;;;;10.00;7.20;;;26.30;99.90;;;;;;5019960;28;20022;-72
2023/06/20 09:40:19;;;;;;;7.10;6.40;;;26.30;99.90;;;;;;5019781;28;20060;-72
2023/06/20 09:42:45;;;;;;;9.73;7.60;;;26.40;99.90;;;;;;5019896;28;20026;-72
2023/06/20 09:45:13;;;;;;;9.70;7.10;;;26.70;99.90;;;;;;5019275;28;20033;-72
2023/06/20 09:47:40;;;;;;;8.77;7.18;;;26.70;99.90;;;;;;5019722;28;20068;-72
2023/06/20 09:50:16;;;;;;;9.75;7.65;;;26.70;99.90;;;;;;5019711;28;20026;-72
2023/06/20 09:52:50;;;;;;;10.88;7.95;;;26.70;99.90;;;;;;5020213;28;20033;-72
2023/06/20 09:55:18;;;;;;;8.02;6.57;;;26.80;99.90;;;;;;5019347;28;20037;-72
2023/06/20 09:57:50;;;;;;;8.80;6.97;;;26.70;99.90;;;;;;5019060;28;20030;-72
2023/06/20 10:00:17;;;;;;;11.05;7.15;;;26.80;99.90;;;;;;5019394;28;20095;-72
2023/06/20 10:02:47;;;;;;;8.00;7.00;;;26.80;99.90;;;;;;5019269;28;20030;-72
2023/06/20 10:05:15;;;;;;;8.55;7.20;;;26.50;99.90;;;;;;5019380;28;20108;-72
2023/06/20 10:07:41;;;;;;;9.65;7.10;;;26.50;99.90;;;;;;5019267;28;20203;-72
2023/06/20 10:10:08;;;;;;;9.50;7.35;;;26.80;99.90;;;;;;5019966;28;20049;-72
2023/06/20 10:12:35;;;;;;;10.50;6.82;;;27.00;99.90;;;;;;5019840;28;20033;-72
2023/06/20 10:15:02;;;;;;;12.45;7.75;;;27.10;99.90;;;;;;5019536;28;20061;-72
2023/06/20 10:17:38;;;;;;;12.07;7.20;;;27.10;99.90;;;;;;5018956;28;20026;-72
2023/06/20 10:20:08;;;;;;;10.35;8.07;;;27.10;99.90;;;;;;5018985;28;20022;-72
2023/06/20 10:22:41;;;;;;;10.90;7.22;;;27.30;99.90;;;;;;5019684;28;20037;-72
2023/06/20 10:25:14;;;;;;;10.15;7.60;;;27.30;99.90;;;;;;5018834;28;20021;-72
2023/06/20 10:27:43;;;;;;;7.97;7.05;;;27.40;99.90;;;;;;5019591;28;20055;-72
2023/06/20 10:30:12;;;;;;;10.90;6.65;;;27.50;99.90;;;;;;5018554;28;20076;-72
2023/06/20 10:33:04;;;;;;;12.25;6.35;;;27.30;99.90;;;;;;5018716;28;20029;-72
2023/06/20 10:35:30;;;;;;;11.77;7.00;;;27.70;99.90;;;;;;5018641;28;20046;-72
2023/06/20 10:38:07;;;;;;;7.28;6.53;;;28.10;99.90;;;;;;5017528;28;20093;-72
2023/06/20 10:40:34;;;;;;;8.32;6.43;;;28.40;99.90;;;;;;5019093;28;20080;-72
2023/06/20 10:43:08;;;;;;;11.98;7.03;;;28.70;99.90;;;;;;5018483;28;20057;-72
2023/06/20 10:45:34;;;;;;;8.98;7.18;;;28.50;99.90;;;;;;5018376;28;20030;-72
2023/06/20 10:48:03;;;;;;;7.35;6.60;;;28.50;99.90;;;;;;5018348;28;20109;-72
2023/06/20 10:50:30;;;;;;;8.10;6.82;;;29.20;99.90;;;;;;5019238;28;20018;-72
2023/06/20 10:52:58;;;;;;;7.07;6.38;;;29.50;99.90;;;;;;5018573;28;20056;-72
2023/06/20 10:55:28;;;;;;;8.48;7.07;;;29.60;99.90;;;;;;5018548;28;20026;-72
2023/06/20 10:57:55;;;;;;;8.77;6.53;;;28.90;99.90;;;;;;5018114;28;20026;-70
2023/06/20 11:00:22;;;;;;;7.55;6.82;;;29.30;99.90;;;;;;5018929;28;20037;-70
2023/06/20 11:02:50;;;;;;;8.05;7.25;;;29.50;99.90;;;;;;5018267;28;20042;-71
2023/06/20 11:05:16;;;;;;;8.38;7.57;;;29.90;99.90;;;;;;5018139;28;20029;-70
2023/06/20 11:07:58;;;;;;;9.60;7.15;;;30.20;99.90;;;;;;5018606;28;20099;-70
2023/06/20 11:10:35;;;;;;;8.15;6.82;;;30.50;99.90;;;;;;5018229;28;20026;-70
2023/06/20 11:13:05;;;;;;;12.10;7.45;;;30.60;99.90;;;;;;5019064;28;20038;-69
2023/06/20 11:15:34;;;;;;;11.52;8.27;;;30.50;99.90;;;;;;5017951;28;20076;-69
2023/06/20 11:18:05;;;;;;;8.52;7.72;;;30.40;99.90;;;;;;5018545;28;20026;-68
2023/06/20 11:20:35;;;;;;;8.85;7.53;;;30.10;99.90;;;;;;5019009;28;20040;-68
2023/06/20 11:23:05;;;;;;;9.32;7.10;;;29.70;99.90;;;;;;5018012;28;20030;-68
2023/06/20 11:25:33;;;;;;;10.70;7.85;;;30.20;99.90;;;;;;5018475;28;20026;-68
2023/06/20 11:28:12;;;;;;;12.65;8.10;;;30.60;99.90;;;;;;5017878;28;20073;-68
2023/06/20 11:30:43;;;;;;;9.70;7.00;;;30.30;99.90;;;;;;5017960;28;20022;-68
2023/06/20 11:33:09;;;;;;;12.73;6.93;;;30.00;99.90;;;;;;5017945;28;20022;-68
2023/06/20 11:35:54;;;;;;;10.32;8.48;;;30.20;99.90;;;;;;5017496;28;20040;-69
2023/06/20 11:38:21;;;;;;;11.02;7.35;;;31.40;99.90;;;;;;5017227;28;20026;-69
2023/06/20 11:40:58;;;;;;;9.07;8.10;;;31.80;99.90;;;;;;5018172;28;20018;-69
2023/06/20 11:43:26;;;;;;;9.35;7.90;;;32.40;99.90;;;;;;5017962;28;20022;-68
2023/06/20 11:45:58;;;;;;;11.77;7.93;;;31.80;99.90;;;;;;5018047;28;20029;-68
2023/06/20 11:48:24;;;;;;;15.30;9.27;;;31.50;99.90;;;;;;5017526;28;20029;-68
2023/06/20 11:50:58;;;;;;;9.15;8.25;;;31.60;99.90;;;;;;5017754;28;20018;-68
2023/06/20 11:53:29;;;;;;;11.45;9.10;;;32.00;99.90;;;;;;5017930;28;20022;-69
2023/06/20 11:55:59;;;;;;;9.77;8.88;;;32.10;99.90;;;;;;5017197;28;20022;-68
2023/06/20 11:58:29;;;;;;;10.85;8.38;;;31.40;99.90;;;;;;5017134;28;20022;-68
2023/06/20 12:01:22;;;;;;;10.30;8.23;;;31.00;99.90;;;;;;5016904;28;20026;-68
2023/06/20 12:04:01;;;;;;;10.20;7.90;;;30.80;99.90;;;;;;5015121;28;20064;-68
2023/06/20 12:06:32;;;;;;;12.45;8.52;;;31.20;99.90;;;;;;5017147;28;20120;-68
2023/06/20 12:09:00;;;;;;;7.55;6.85;;;32.30;99.90;;;;;;5016784;28;20018;-68
2023/06/20 12:11:27;;;;;;;9.25;8.05;;;32.80;99.90;;;;;;5016768;28;20025;-69
2023/06/20 12:13:52;;;;;;;9.18;8.35;;;33.20;99.90;;;;;;5016776;28;20049;-68
2023/06/20 12:16:19;;;;;;;8.90;8.02;;;33.10;99.90;;;;;;5017116;28;20026;-68
2023/06/20 12:18:49;;;;;;;11.15;8.95;;;33.30;99.90;;;;;;5017621;28;20025;-68
2023/06/20 12:21:14;;;;;;;8.88;7.22;;;33.30;99.90;;;;;;5016885;28;20141;-68
2023/06/20 12:23:40;;;;;;;7.32;6.60;;;32.40;99.90;;;;;;5016791;28;20073;-68
2023/06/20 12:26:07;;;;;;;11.75;7.25;;;33.00;99.90;;;;;;5017075;28;20022;-69
2023/06/20 12:28:32;;;;;;;13.60;7.07;;;32.50;99.90;;;;;;5016557;28;20037;-69
2023/06/20 12:30:59;;;;;;;11.80;7.53;;;32.50;99.90;;;;;;5016564;28;20109;-68
2023/06/20 12:33:25;;;;;;;7.50;6.47;;;32.20;99.90;;;;;;5017358;28;20024;-69
2023/06/20 12:35:51;;;;;;;10.00;7.05;;;31.60;99.90;;;;;;5016274;28;20030;-68
2023/06/20 12:38:16;;;;;;;9.13;7.45;;;31.40;99.90;;;;;;5016667;28;20018;-68
2023/06/20 12:40:42;;;;;;;8.20;7.40;;;31.50;99.90;;;;;;5016454;28;20080;-68
2023/06/20 12:43:08;;;;;;;8.82;6.95;;;31.10;99.90;;;;;;5016313;28;20037;-68
2023/06/20 12:45:33;;;;;;;8.43;6.40;;;30.90;99.90;;;;;;5017026;28;20024;-68
2023/06/20 12:47:59;;;;;;;7.82;6.85;;;31.10;99.90;;;;;;5016591;28;20125;-68